sensor_id;sensor_type;location;lat;lon;timestamp;pressure;altitude;pressure_sealevel;temperature;humidity
23223;BME280;11780;13.904;100.620;2023-04-28T13:50:10;100841.84;;;32.03;67.24
23223;BME280;11780;13.904;100.620;2023-04-28T13:52:41;100846.84;;;32.10;67.51
23223;BME280;11780;13.904;100.620;2023-04-28T13:55:11;100841.44;;;32.23;68.16
23223;BME280;11780;13.904;100.620;2023-04-28T13:57:42;100848.13;;;32.30;67.88
23223;BME280;11780;13.904;100.620;2023-04-28T14:00:13;100848.47;;;32.29;67.78
23223;BME280;11780;13.904;100.620;2023-04-28T14:02:43;100857.91;;;32.28;68.03
23223;BME280;11780;13.904;100.620;2023-04-28T14:05:14;100859.03;;;32.36;68.57
23223;BME280;11780;13.904;100.620;2023-04-28T14:07:48;100855.59;;;32.39;68.49
23223;BME280;11780;13.904;100.620;2023-04-28T14:10:19;100860.75;;;32.49;68.45
23223;BME280;11780;13.904;100.620;2023-04-28T14:12:49;100855.84;;;32.55;68.63
23223;BME280;11780;13.904;100.620;2023-04-28T14:15:19;100856.63;;;32.55;68.32
23223;BME280;11780;13.904;100.620;2023-04-28T14:17:50;100853.72;;;32.52;68.21
23223;BME280;11780;13.904;100.620;2023-04-28T14:20:20;100851.63;;;32.48;68.50
23223;BME280;11780;13.904;100.620;2023-04-28T14:22:54;100854.25;;;32.45;68.65
23223;BME280;11780;13.904;100.620;2023-04-28T14:25:24;100844.47;;;32.47;68.64
23223;BME280;11780;13.904;100.620;2023-04-28T14:27:56;100862.38;;;32.50;68.42
23223;BME280;11780;13.904;100.620;2023-04-28T14:30:27;100864.66;;;32.48;68.56
23223;BME280;11780;13.904;100.620;2023-04-28T14:32:57;100867.09;;;32.49;68.54
23223;BME280;11780;13.904;100.620;2023-04-28T14:35:28;100872.09;;;32.56;68.68
23223;BME280;11780;13.904;100.620;2023-04-28T14:38:00;100883.53;;;32.55;68.54
23223;BME280;11780;13.904;100.620;2023-04-28T14:40:31;100889.72;;;32.52;68.80
23223;BME280;11780;13.904;100.620;2023-04-28T14:43:02;100886.66;;;32.53;68.68
23223;BME280;11780;13.904;100.620;2023-04-28T14:45:32;100893.97;;;32.49;68.91
23223;BME280;11780;13.904;100.620;2023-04-28T14:48:04;100888.81;;;32.39;69.25
23223;BME280;11780;13.904;100.620;2023-04-28T14:50:36;100902.66;;;32.39;69.85
23223;BME280;11780;13.904;100.620;2023-04-28T14:53:07;100906.06;;;32.36;69.60
23223;BME280;11780;13.904;100.620;2023-04-28T14:55:38;100917.44;;;32.43;69.74
23223;BME280;11780;13.904;100.620;2023-04-28T14:58:08;100915.03;;;32.32;70.22
23223;BME280;11780;13.904;100.620;2023-04-28T15:00:39;100925.91;;;32.46;69.77
23223;BME280;11780;13.904;100.620;2023-04-28T15:03:09;100917.44;;;32.43;69.87
23223;BME280;11780;13.904;100.620;2023-04-28T15:05:40;100927.72;;;32.42;69.89
23223;BME280;11780;13.904;100.620;2023-04-28T15:08:10;100928.53;;;32.43;69.79
23223;BME280;11780;13.904;100.620;2023-04-28T15:10:40;100921.84;;;32.44;69.73
23223;BME280;11780;13.904;100.620;2023-04-28T15:13:11;100925.06;;;32.55;69.85
23223;BME280;11780;13.904;100.620;2023-04-28T15:15:41;100922.91;;;32.60;69.50
23223;BME280;11780;13.904;100.620;2023-04-28T15:18:11;100925.38;;;32.62;69.48
23223;BME280;11780;13.904;100.620;2023-04-28T15:20:42;100929.09;;;32.66;69.37
23223;BME280;11780;13.904;100.620;2023-04-28T15:23:13;100935.59;;;32.70;69.39
23223;BME280;11780;13.904;100.620;2023-04-28T15:25:43;100928.28;;;32.65;69.57
23223;BME280;11780;13.904;100.620;2023-04-28T15:28:14;100925.38;;;32.62;70.09
23223;BME280;11780;13.904;100.620;2023-04-28T15:30:45;100927.84;;;32.55;70.59
23223;BME280;11780;13.904;100.620;2023-04-28T15:33:15;100938.56;;;32.56;70.57
23223;BME280;11780;13.904;100.620;2023-04-28T15:35:48;100931.41;;;32.55;70.63
23223;BME280;11780;13.904;100.620;2023-04-28T15:38:18;100934.66;;;32.57;70.68
23223;BME280;11780;13.904;100.620;2023-04-28T15:40:49;100922.44;;;32.58;70.74
23223;BME280;11780;13.904;100.620;2023-04-28T15:43:19;100922.44;;;32.58;70.79
23223;BME280;11780;13.904;100.620;2023-04-28T15:45:50;100924.56;;;32.61;70.91
23223;BME280;11780;13.904;100.620;2023-04-28T15:48:20;100915.91;;;32.63;70.68
23223;BME280;11780;13.904;100.620;2023-04-28T15:50:52;100913.63;;;32.65;70.66
23223;BME280;11780;13.904;100.620;2023-04-28T15:53:22;100919.97;;;32.65;71.11
23223;BME280;11780;13.904;100.620;2023-04-28T15:55:54;100931.84;;;32.66;70.71
23223;BME280;11780;13.904;100.620;2023-04-28T15:58:25;100927.94;;;32.67;70.63
23223;BME280;11780;13.904;100.620;2023-04-28T16:00:56;100926.69;;;32.56;71.41
23223;BME280;11780;13.904;100.620;2023-04-28T16:03:28;100924.91;;;32.51;71.95
23223;BME280;11780;13.904;100.620;2023-04-28T16:05:58;100922.47;;;32.49;71.88
23223;BME280;11780;13.904;100.620;2023-04-28T16:08:29;100916.66;;;32.42;72.12
23223;BME280;11780;13.904;100.620;2023-04-28T16:10:59;100920.69;;;32.45;72.37
23223;BME280;11780;13.904;100.620;2023-04-28T16:13:30;100916.66;;;32.42;72.25
23223;BME280;11780;13.904;100.620;2023-04-28T16:16:02;100914.53;;;32.39;72.70
23223;BME280;11780;13.904;100.620;2023-04-28T16:18:32;100910.97;;;32.39;72.36
23223;BME280;11780;13.904;100.620;2023-04-28T16:21:03;100902.97;;;32.37;72.78
23223;BME280;11780;13.904;100.620;2023-04-28T16:23:33;100898.56;;;32.36;72.47
23223;BME280;11780;13.904;100.620;2023-04-28T16:26:04;100896.63;;;32.37;72.60
23223;BME280;11780;13.904;100.620;2023-04-28T16:28:34;100896.63;;;32.37;72.34
23223;BME280;11780;13.904;100.620;2023-04-28T16:31:04;100892.56;;;32.34;72.49
23223;BME280;11780;13.904;100.620;2023-04-28T16:33:35;100879.53;;;32.34;72.39
23223;BME280;11780;13.904;100.620;2023-04-28T16:36:06;100880.69;;;32.33;72.43
23223;BME280;11780;13.904;100.620;2023-04-28T16:38:37;100871.56;;;32.33;72.73
23223;BME280;11780;13.904;100.620;2023-04-28T16:41:07;100869.59;;;32.33;72.28
23223;BME280;11780;13.904;100.620;2023-04-28T16:43:38;100872.88;;;32.36;72.41
23223;BME280;11780;13.904;100.620;2023-04-28T16:46:08;100873.50;;;32.32;72.57
23223;BME280;11780;13.904;100.620;2023-04-28T16:48:39;100870.75;;;32.32;72.47
23223;BME280;11780;13.904;100.620;2023-04-28T16:51:10;100861.63;;;32.32;72.85
23223;BME280;11780;13.904;100.620;2023-04-28T16:53:40;100862.44;;;32.32;72.45
23223;BME280;11780;13.904;100.620;2023-04-28T16:56:10;100857.56;;;32.29;72.70
23223;BME280;11780;13.904;100.620;2023-04-28T16:58:41;100845.69;;;32.29;72.82
23223;BME280;11780;13.904;100.620;2023-04-28T17:01:11;100840.97;;;32.29;72.94
23223;BME280;11780;13.904;100.620;2023-04-28T17:03:42;100834.63;;;32.29;72.84
23223;BME280;11780;13.904;100.620;2023-04-28T17:06:13;100838.19;;;32.29;72.85
23223;BME280;11780;13.904;100.620;2023-04-28T17:08:43;100834.28;;;32.30;73.17
23223;BME280;11780;13.904;100.620;2023-04-28T17:11:15;100833.94;;;32.32;73.09
23223;BME280;11780;13.904;100.620;2023-04-28T17:13:46;100833.47;;;32.30;73.23
23223;BME280;11780;13.904;100.620;2023-04-28T17:16:17;100830.22;;;32.28;73.06
23223;BME280;11780;13.904;100.620;2023-04-28T17:18:48;100823.56;;;32.29;73.19
23223;BME280;11780;13.904;100.620;2023-04-28T17:21:18;100826.31;;;32.29;73.10
23223;BME280;11780;13.904;100.620;2023-04-28T17:23:48;100822.72;;;32.28;73.00
23223;BME280;11780;13.904;100.620;2023-04-28T17:26:19;100823.88;;;32.27;73.06
23223;BME280;11780;13.904;100.620;2023-04-28T17:28:50;100820.31;;;32.27;73.01
23223;BME280;11780;13.904;100.620;2023-04-28T17:31:21;100826.81;;;32.31;72.88
23223;BME280;11780;13.904;100.620;2023-04-28T17:33:53;100825.50;;;32.28;73.22
23223;BME280;11780;13.904;100.620;2023-04-28T17:36:24;100819.16;;;32.28;73.09
23223;BME280;11780;13.904;100.620;2023-04-28T17:38:57;100826.81;;;32.31;73.30
23223;BME280;11780;13.904;100.620;2023-04-28T17:41:28;100820.78;;;32.29;72.81
23223;BME280;11780;13.904;100.620;2023-04-28T17:43:58;100819.16;;;32.28;73.15
23223;BME280;11780;13.904;100.620;2023-04-28T17:46:29;100812.78;;;32.27;73.46
23223;BME280;11780;13.904;100.620;2023-04-28T17:48:59;100807.59;;;32.26;73.26
23223;BME280;11780;13.904;100.620;2023-04-28T17:51:30;100797.34;;;32.26;72.99
23223;BME280;11780;13.904;100.620;2023-04-28T17:54:01;100798.44;;;32.25;73.28
23223;BME280;11780;13.904;100.620;2023-04-28T17:56:31;100789.50;;;32.28;73.14
23223;BME280;11780;13.904;100.620;2023-04-28T17:59:02;100792.91;;;32.25;73.45
23223;BME280;11780;13.904;100.620;2023-04-28T18:01:32;100787.09;;;32.27;73.24
23223;BME280;11780;13.904;100.620;2023-04-28T18:04:04;100776.00;;;32.27;73.24
23223;BME280;11780;13.904;100.620;2023-04-28T18:06:34;100774.38;;;32.26;73.14
23223;BME280;11780;13.904;100.620;2023-04-28T18:09:04;100775.19;;;32.26;73.43
23223;BME280;11780;13.904;100.620;2023-04-28T18:11:35;100768.00;;;32.25;73.14
23223;BME280;11780;13.904;100.620;2023-04-28T18:14:06;100763.81;;;32.28;72.88
23223;BME280;11780;13.904;100.620;2023-04-28T18:16:36;100754.66;;;32.27;73.05
23223;BME280;11780;13.904;100.620;2023-04-28T18:19:07;100759.88;;;32.29;73.14
23223;BME280;11780;13.904;100.620;2023-04-28T18:21:37;100760.22;;;32.27;73.03
23223;BME280;11780;13.904;100.620;2023-04-28T18:24:08;100756.13;;;32.25;73.44
23223;BME280;11780;13.904;100.620;2023-04-28T18:26:38;100758.91;;;32.25;73.25
23223;BME280;11780;13.904;100.620;2023-04-28T18:29:09;100758.41;;;32.23;73.12
23223;BME280;11780;13.904;100.620;2023-04-28T18:31:39;100750.94;;;32.23;72.95
23223;BME280;11780;13.904;100.620;2023-04-28T18:34:11;100760.84;;;32.24;72.81
23223;BME280;11780;13.904;100.620;2023-04-28T18:36:41;100757.28;;;32.24;72.84
23223;BME280;11780;13.904;100.620;2023-04-28T18:39:12;100760.56;;;32.26;72.78
23223;BME280;11780;13.904;100.620;2023-04-28T18:41:43;100756.13;;;32.25;72.68
23223;BME280;11780;13.904;100.620;2023-04-28T18:44:13;100751.41;;;32.25;72.90
23223;BME280;11780;13.904;100.620;2023-04-28T18:46:44;100754.50;;;32.24;72.85
23223;BME280;11780;13.904;100.620;2023-04-28T18:49:14;100760.03;;;32.24;72.62
23223;BME280;11780;13.904;100.620;2023-04-28T18:51:45;100761.66;;;32.25;72.61
23223;BME280;11780;13.904;100.620;2023-04-28T18:54:15;100755.31;;;32.24;72.94
23223;BME280;11780;13.904;100.620;2023-04-28T18:56:46;100747.34;;;32.23;72.81
23223;BME280;11780;13.904;100.620;2023-04-28T18:59:21;100745.06;;;32.25;72.64
23223;BME280;11780;13.904;100.620;2023-04-28T19:01:52;100744.09;;;32.20;72.79
23223;BME280;11780;13.904;100.620;2023-04-28T19:04:22;100741.47;;;32.24;72.70
23223;BME280;11780;13.904;100.620;2023-04-28T19:06:53;100739.03;;;32.23;72.70
23223;BME280;11780;13.904;100.620;2023-04-28T19:09:23;100740.19;;;32.22;72.36
23223;BME280;11780;13.904;100.620;2023-04-28T19:11:54;100733.50;;;32.23;72.54
23223;BME280;11780;13.904;100.620;2023-04-28T19:14:24;100729.13;;;32.22;72.32
23223;BME280;11780;13.904;100.620;2023-04-28T19:16:55;100729.13;;;32.22;72.59
23223;BME280;11780;13.904;100.620;2023-04-28T19:19:25;100732.22;;;32.20;72.68
23223;BME280;11780;13.904;100.620;2023-04-28T19:21:56;100727.00;;;32.18;72.53
23223;BME280;11780;13.904;100.620;2023-04-28T19:24:26;100723.09;;;32.19;72.71
23223;BME280;11780;13.904;100.620;2023-04-28T19:26:58;100728.97;;;32.18;72.44
23223;BME280;11780;13.904;100.620;2023-04-28T19:29:30;100721.47;;;32.18;72.68
23223;BME280;11780;13.904;100.620;2023-04-28T19:32:01;100720.19;;;32.16;72.75
23223;BME280;11780;13.904;100.620;2023-04-28T19:34:31;100710.88;;;32.20;72.77
23223;BME280;11780;13.904;100.620;2023-04-28T19:37:02;100716.75;;;32.19;72.62
23223;BME280;11780;13.904;100.620;2023-04-28T19:39:33;100707.63;;;32.18;72.80
23223;BME280;11780;13.904;100.620;2023-04-28T19:42:04;100704.56;;;32.20;73.03
23223;BME280;11780;13.904;100.620;2023-04-28T19:44:35;100698.84;;;32.16;72.87
23223;BME280;11780;13.904;100.620;2023-04-28T19:47:06;100697.41;;;32.19;72.71
23223;BME280;11780;13.904;100.620;2023-04-28T19:49:36;100700.47;;;32.17;72.86
23223;BME280;11780;13.904;100.620;2023-04-28T19:52:06;100694.94;;;32.17;72.85
23223;BME280;11780;13.904;100.620;2023-04-28T19:54:39;100697.72;;;32.17;72.67
23223;BME280;11780;13.904;100.620;2023-04-28T19:57:10;100691.03;;;32.18;72.57
23223;BME280;11780;13.904;100.620;2023-04-28T19:59:40;100694.28;;;32.20;72.97
23223;BME280;11780;13.904;100.620;2023-04-28T20:02:11;100694.94;;;32.17;72.85
23223;BME280;11780;13.904;100.620;2023-04-28T20:04:42;100689.41;;;32.17;72.91
23223;BME280;11780;13.904;100.620;2023-04-28T20:07:12;100690.91;;;32.15;72.44
23223;BME280;11780;13.904;100.620;2023-04-28T20:09:43;100690.91;;;32.15;72.90
23223;BME280;11780;13.904;100.620;2023-04-28T20:12:13;100686.19;;;32.15;72.85
23223;BME280;11780;13.904;100.620;2023-04-28T20:14:44;100690.56;;;32.16;72.88
23223;BME280;11780;13.904;100.620;2023-04-28T20:17:15;100697.25;;;32.15;72.73
23223;BME280;11780;13.904;100.620;2023-04-28T20:19:46;100688.78;;;32.12;72.96
23223;BME280;11780;13.904;100.620;2023-04-28T20:22:16;100690.09;;;32.14;73.12
23223;BME280;11780;13.904;100.620;2023-04-28T20:24:47;100692.19;;;32.17;72.85
23223;BME280;11780;13.904;100.620;2023-04-28T20:27:18;100707.16;;;32.16;72.87
23223;BME280;11780;13.904;100.620;2023-04-28T20:29:48;100702.31;;;32.13;72.87
23223;BME280;11780;13.904;100.620;2023-04-28T20:32:19;100705.09;;;32.13;72.78
23223;BME280;11780;13.904;100.620;2023-04-28T20:34:49;100704.25;;;32.13;73.05
23223;BME280;11780;13.904;100.620;2023-04-28T20:37:20;100704.59;;;32.11;73.17
23223;BME280;11780;13.904;100.620;2023-04-28T20:39:52;100704.59;;;32.11;72.78
23223;BME280;11780;13.904;100.620;2023-04-28T20:42:23;100705.09;;;32.13;72.88
23223;BME280;11780;13.904;100.620;2023-04-28T20:44:53;100713.38;;;32.13;72.90
23223;BME280;11780;13.904;100.620;2023-04-28T20:47:23;100703.47;;;32.12;73.05
23223;BME280;11780;13.904;100.620;2023-04-28T20:49:54;100704.59;;;32.11;72.71
23223;BME280;11780;13.904;100.620;2023-04-28T20:52:24;100708.66;;;32.14;72.89
23223;BME280;11780;13.904;100.620;2023-04-28T20:54:55;100707.50;;;32.15;72.92
23223;BME280;11780;13.904;100.620;2023-04-28T20:57:26;100716.63;;;32.15;72.76
23223;BME280;11780;13.904;100.620;2023-04-28T20:59:56;100705.09;;;32.13;72.45
23223;BME280;11780;13.904;100.620;2023-04-28T21:02:27;100699.53;;;32.13;72.31
23223;BME280;11780;13.904;100.620;2023-04-28T21:04:58;100706.34;;;32.16;72.64
23223;BME280;11780;13.904;100.620;2023-04-28T21:07:28;100705.75;;;32.10;72.98
23223;BME280;11780;13.904;100.620;2023-04-28T21:09:59;100707.50;;;32.15;72.71
23223;BME280;11780;13.904;100.620;2023-04-28T21:12:29;100697.56;;;32.14;73.07
23223;BME280;11780;13.904;100.620;2023-04-28T21:15:00;100702.31;;;32.13;73.07
23223;BME280;11780;13.904;100.620;2023-04-28T21:17:30;100709.00;;;32.12;73.16
23223;BME280;11780;13.904;100.620;2023-04-28T21:20:01;100705.41;;;32.12;72.79
23223;BME280;11780;13.904;100.620;2023-04-28T21:22:32;100713.69;;;32.12;72.90
23223;BME280;11780;13.904;100.620;2023-04-28T21:25:03;100712.41;;;32.09;72.90
23223;BME280;11780;13.904;100.620;2023-04-28T21:27:34;100713.56;;;32.08;72.97
23223;BME280;11780;13.904;100.620;2023-04-28T21:30:05;100722.34;;;32.10;72.62
23223;BME280;11780;13.904;100.620;2023-04-28T21:32:35;100721.19;;;32.11;72.73
23223;BME280;11780;13.904;100.620;2023-04-28T21:35:06;100717.59;;;32.11;72.32
23223;BME280;11780;13.904;100.620;2023-04-28T21:37:37;100713.56;;;32.08;72.82
23223;BME280;11780;13.904;100.620;2023-04-28T21:40:08;100723.13;;;32.11;72.17
23223;BME280;11780;13.904;100.620;2023-04-28T21:42:38;100726.25;;;32.09;72.20
23223;BME280;11780;13.904;100.620;2023-04-28T21:45:09;100732.59;;;32.10;72.44
23223;BME280;11780;13.904;100.620;2023-04-28T21:47:40;100733.41;;;32.10;72.23
23223;BME280;11780;13.904;100.620;2023-04-28T21:50:10;100741.72;;;32.10;72.23
23223;BME280;11780;13.904;100.620;2023-04-28T21:52:41;100745.63;;;32.09;72.61
23223;BME280;11780;13.904;100.620;2023-04-28T21:55:11;100748.72;;;32.08;72.25
23223;BME280;11780;13.904;100.620;2023-04-28T21:57:42;100754.91;;;32.04;72.60
23223;BME280;11780;13.904;100.620;2023-04-28T22:00:13;100766.31;;;32.03;72.25
23223;BME280;11780;13.904;100.620;2023-04-28T22:02:43;100764.22;;;32.00;72.68
23223;BME280;11780;13.904;100.620;2023-04-28T22:05:14;100765.38;;;31.99;72.39
23223;BME280;11780;13.904;100.620;2023-04-28T22:07:45;100766.16;;;31.99;72.70
23223;BME280;11780;13.904;100.620;2023-04-28T22:10:17;100763.41;;;31.99;72.46
23223;BME280;11780;13.904;100.620;2023-04-28T22:12:47;100771.56;;;31.96;72.64
23223;BME280;11780;13.904;100.620;2023-04-28T22:15:18;100768.59;;;32.01;72.51
23223;BME280;11780;13.904;100.620;2023-04-28T22:17:48;100776.44;;;31.99;72.35
23223;BME280;11780;13.904;100.620;2023-04-28T22:20:19;100775.59;;;31.98;72.85
23223;BME280;11780;13.904;100.620;2023-04-28T22:22:49;100783.09;;;31.98;72.65
23223;BME280;11780;13.904;100.620;2023-04-28T22:25:20;100789.44;;;31.98;72.56
23223;BME280;11780;13.904;100.620;2023-04-28T22:27:51;100789.47;;;31.89;73.18
23223;BME280;11780;13.904;100.620;2023-04-28T22:30:21;100784.59;;;31.78;73.66
23223;BME280;11780;13.904;100.620;2023-04-28T22:32:52;100800.41;;;31.77;73.74
23223;BME280;11780;13.904;100.620;2023-04-28T22:35:23;100791.78;;;31.70;74.20
23223;BME280;11780;13.904;100.620;2023-04-28T22:37:54;100802.34;;;31.68;74.16
23223;BME280;11780;13.904;100.620;2023-04-28T22:40:24;100803.50;;;31.67;74.11
23223;BME280;11780;13.904;100.620;2023-04-28T22:42:56;100797.13;;;31.66;74.17
23223;BME280;11780;13.904;100.620;2023-04-28T22:45:26;100800.22;;;31.65;74.42
23223;BME280;11780;13.904;100.620;2023-04-28T22:47:57;100809.66;;;31.64;74.58
23223;BME280;11780;13.904;100.620;2023-04-28T22:50:28;100797.13;;;31.66;74.60
23223;BME280;11780;13.904;100.620;2023-04-28T22:53:00;100812.91;;;31.66;74.57
23223;BME280;11780;13.904;100.620;2023-04-28T22:55:30;100801.69;;;31.80;74.30
23223;BME280;11780;13.904;100.620;2023-04-28T22:58:01;100802.31;;;31.85;73.61
23223;BME280;11780;13.904;100.620;2023-04-28T23:00:31;100817.47;;;31.88;73.49
23223;BME280;11780;13.904;100.620;2023-04-28T23:03:02;100820.56;;;31.78;73.68
23223;BME280;11780;13.904;100.620;2023-04-28T23:05:36;100816.00;;;31.82;73.51
23223;BME280;11780;13.904;100.620;2023-04-28T23:08:07;100824.13;;;31.69;73.80
23223;BME280;11780;13.904;100.620;2023-04-28T23:10:37;100833.22;;;31.61;73.81
23223;BME280;11780;13.904;100.620;2023-04-28T23:13:07;100831.63;;;31.51;74.32
23223;BME280;11780;13.904;100.620;2023-04-28T23:15:38;100836.34;;;31.51;74.38
23223;BME280;11780;13.904;100.620;2023-04-28T23:18:09;100845.94;;;31.44;74.31
23223;BME280;11780;13.904;100.620;2023-04-28T23:20:39;100847.72;;;31.32;74.43
23223;BME280;11780;13.904;100.620;2023-04-28T23:23:10;100850.50;;;31.40;74.65
23223;BME280;11780;13.904;100.620;2023-04-28T23:25:41;100851.78;;;31.34;74.46
23223;BME280;11780;13.904;100.620;2023-04-28T23:28:14;100848.72;;;31.36;74.51
23223;BME280;11780;13.904;100.620;2023-04-28T23:30:44;100859.44;;;31.37;74.31
23223;BME280;11780;13.904;100.620;2023-04-28T23:33:15;100869.34;;;31.38;74.30
23223;BME280;11780;13.904;100.620;2023-04-28T23:35:45;100871.13;;;31.43;74.77
23223;BME280;11780;13.904;100.620;2023-04-28T23:38:16;100871.28;;;31.47;74.29
23223;BME280;11780;13.904;100.620;2023-04-28T23:40:46;100883.50;;;31.37;74.32
23223;BME280;11780;13.904;100.620;2023-04-28T23:43:17;100890.31;;;31.31;74.56
23223;BME280;11780;13.904;100.620;2023-04-28T23:45:48;100903.81;;;31.32;74.72
23223;BME280;11780;13.904;100.620;2023-04-28T23:48:18;100905.13;;;31.35;74.81
23223;BME280;11780;13.904;100.620;2023-04-28T23:50:49;100911.28;;;31.32;75.26
23223;BME280;11780;13.904;100.620;2023-04-28T23:53:19;100903.00;;;31.23;75.28
23223;BME280;11780;13.904;100.620;2023-04-28T23:56:55;100918.09;;;31.25;nan
23223;BME280;11780;13.904;100.620;2023-04-28T23:59:25;100918.75;;;31.31;nan
